Aviation Digital Data Service (ADDS)

Output produced by METARs form (2148 UTC 03 June 2015)
found at http://aviationweather.gov/adds/metars/
 
KJHW 032027Z 0320/0418 16006KT P6SM SKC 
     FM041000 16008KT P6SM SCT040 AMD LTD TO CLD VIS AND WIND